sensor_id;sensor_type;location;lat;lon;timestamp;P1;durP1;ratioP1;P2;durP2;ratioP2
4583;SDS011;2304;47.606;12.186;2022-11-13T00:02:32;11.57;;;7.13;;
4583;SDS011;2304;47.606;12.186;2022-11-13T00:07:34;12.63;;;7.53;;
4583;SDS011;2304;47.606;12.186;2022-11-13T00:12:36;10.30;;;7.90;;
4583;SDS011;2304;47.606;12.186;2022-11-13T00:17:39;14.97;;;7.80;;
4583;SDS011;2304;47.606;12.186;2022-11-13T00:22:42;11.93;;;7.37;;
4583;SDS011;2304;47.606;12.186;2022-11-13T00:27:45;12.83;;;8.00;;
4583;SDS011;2304;47.606;12.186;2022-11-13T00:32:48;12.60;;;8.93;;
4583;SDS011;2304;47.606;12.186;2022-11-13T00:37:50;11.40;;;7.33;;
4583;SDS011;2304;47.606;12.186;2022-11-13T00:42:52;10.90;;;7.30;;
4583;SDS011;2304;47.606;12.186;2022-11-13T00:47:55;12.40;;;7.80;;
4583;SDS011;2304;47.606;12.186;2022-11-13T00:52:57;9.83;;;6.93;;
4583;SDS011;2304;47.606;12.186;2022-11-13T00:57:59;10.63;;;6.70;;
4583;SDS011;2304;47.606;12.186;2022-11-13T01:03:02;13.90;;;6.77;;
4583;SDS011;2304;47.606;12.186;2022-11-13T01:08:05;13.00;;;6.80;;
4583;SDS011;2304;47.606;12.186;2022-11-13T01:13:08;13.87;;;8.17;;
4583;SDS011;2304;47.606;12.186;2022-11-13T01:18:13;14.90;;;8.10;;
4583;SDS011;2304;47.606;12.186;2022-11-13T01:23:14;10.87;;;7.80;;
4583;SDS011;2304;47.606;12.186;2022-11-13T01:28:16;10.80;;;7.23;;
4583;SDS011;2304;47.606;12.186;2022-11-13T01:33:20;10.50;;;6.90;;
4583;SDS011;2304;47.606;12.186;2022-11-13T01:38:21;10.73;;;6.80;;
4583;SDS011;2304;47.606;12.186;2022-11-13T01:43:24;10.63;;;6.50;;
4583;SDS011;2304;47.606;12.186;2022-11-13T01:48:31;9.20;;;7.17;;
4583;SDS011;2304;47.606;12.186;2022-11-13T01:53:36;12.43;;;7.03;;
4583;SDS011;2304;47.606;12.186;2022-11-13T01:58:41;12.00;;;7.90;;
4583;SDS011;2304;47.606;12.186;2022-11-13T02:03:49;11.73;;;7.10;;
4583;SDS011;2304;47.606;12.186;2022-11-13T02:08:51;10.17;;;7.00;;
4583;SDS011;2304;47.606;12.186;2022-11-13T02:13:53;10.50;;;7.30;;
4583;SDS011;2304;47.606;12.186;2022-11-13T02:18:57;10.60;;;7.50;;
4583;SDS011;2304;47.606;12.186;2022-11-13T02:23:59;11.10;;;6.70;;
4583;SDS011;2304;47.606;12.186;2022-11-13T02:29:16;11.20;;;7.17;;
4583;SDS011;2304;47.606;12.186;2022-11-13T02:34:18;10.80;;;6.63;;
4583;SDS011;2304;47.606;12.186;2022-11-13T02:39:21;10.60;;;7.53;;
4583;SDS011;2304;47.606;12.186;2022-11-13T02:44:23;8.93;;;6.47;;
4583;SDS011;2304;47.606;12.186;2022-11-13T02:49:25;10.57;;;6.70;;
4583;SDS011;2304;47.606;12.186;2022-11-13T02:54:29;12.30;;;6.67;;
4583;SDS011;2304;47.606;12.186;2022-11-13T02:59:31;9.53;;;6.17;;
4583;SDS011;2304;47.606;12.186;2022-11-13T03:04:33;8.30;;;5.90;;
4583;SDS011;2304;47.606;12.186;2022-11-13T03:09:36;14.13;;;7.07;;
4583;SDS011;2304;47.606;12.186;2022-11-13T03:14:38;11.47;;;6.60;;
4583;SDS011;2304;47.606;12.186;2022-11-13T03:19:40;9.83;;;6.57;;
4583;SDS011;2304;47.606;12.186;2022-11-13T03:24:45;9.20;;;6.63;;
4583;SDS011;2304;47.606;12.186;2022-11-13T03:29:47;8.60;;;6.13;;
4583;SDS011;2304;47.606;12.186;2022-11-13T03:34:48;9.73;;;5.60;;
4583;SDS011;2304;47.606;12.186;2022-11-13T03:39:52;8.67;;;5.97;;
4583;SDS011;2304;47.606;12.186;2022-11-13T03:44:53;8.27;;;5.87;;
4583;SDS011;2304;47.606;12.186;2022-11-13T03:49:55;9.23;;;6.30;;
4583;SDS011;2304;47.606;12.186;2022-11-13T03:55:00;11.40;;;6.10;;
4583;SDS011;2304;47.606;12.186;2022-11-13T04:00:02;8.67;;;6.40;;
4583;SDS011;2304;47.606;12.186;2022-11-13T04:05:07;11.57;;;6.97;;
4583;SDS011;2304;47.606;12.186;2022-11-13T04:10:11;9.27;;;6.03;;
4583;SDS011;2304;47.606;12.186;2022-11-13T04:15:13;10.37;;;6.93;;
4583;SDS011;2304;47.606;12.186;2022-11-13T04:20:15;11.53;;;6.43;;
4583;SDS011;2304;47.606;12.186;2022-11-13T04:25:18;10.00;;;6.17;;
4583;SDS011;2304;47.606;12.186;2022-11-13T04:30:20;12.93;;;5.90;;
4583;SDS011;2304;47.606;12.186;2022-11-13T04:35:22;13.60;;;6.50;;
4583;SDS011;2304;47.606;12.186;2022-11-13T04:40:25;13.60;;;7.07;;
4583;SDS011;2304;47.606;12.186;2022-11-13T04:45:27;9.70;;;5.90;;
4583;SDS011;2304;47.606;12.186;2022-11-13T04:50:29;9.90;;;6.90;;
4583;SDS011;2304;47.606;12.186;2022-11-13T04:55:33;7.63;;;6.10;;
4583;SDS011;2304;47.606;12.186;2022-11-13T05:00:35;10.80;;;6.33;;
4583;SDS011;2304;47.606;12.186;2022-11-13T05:05:37;9.63;;;6.43;;
4583;SDS011;2304;47.606;12.186;2022-11-13T05:10:40;14.30;;;6.60;;
4583;SDS011;2304;47.606;12.186;2022-11-13T05:15:43;10.80;;;7.10;;
4583;SDS011;2304;47.606;12.186;2022-11-13T05:20:45;10.77;;;6.97;;
4583;SDS011;2304;47.606;12.186;2022-11-13T05:25:48;12.73;;;7.10;;
4583;SDS011;2304;47.606;12.186;2022-11-13T05:30:51;11.57;;;7.50;;
4583;SDS011;2304;47.606;12.186;2022-11-13T05:35:52;10.57;;;6.77;;
4583;SDS011;2304;47.606;12.186;2022-11-13T05:40:56;10.00;;;6.60;;
4583;SDS011;2304;47.606;12.186;2022-11-13T05:46:02;9.63;;;6.13;;
4583;SDS011;2304;47.606;12.186;2022-11-13T05:51:06;9.53;;;7.20;;
4583;SDS011;2304;47.606;12.186;2022-11-13T05:56:11;9.50;;;6.67;;
4583;SDS011;2304;47.606;12.186;2022-11-13T06:01:14;11.40;;;6.77;;
4583;SDS011;2304;47.606;12.186;2022-11-13T06:06:20;13.20;;;5.90;;
4583;SDS011;2304;47.606;12.186;2022-11-13T06:11:24;7.63;;;5.57;;
4583;SDS011;2304;47.606;12.186;2022-11-13T06:16:27;8.90;;;5.70;;
4583;SDS011;2304;47.606;12.186;2022-11-13T06:21:31;11.47;;;5.80;;
4583;SDS011;2304;47.606;12.186;2022-11-13T06:26:35;10.33;;;7.03;;
4583;SDS011;2304;47.606;12.186;2022-11-13T06:31:37;10.33;;;6.60;;
4583;SDS011;2304;47.606;12.186;2022-11-13T06:36:40;9.50;;;7.40;;
4583;SDS011;2304;47.606;12.186;2022-11-13T06:41:43;11.30;;;7.97;;
4583;SDS011;2304;47.606;12.186;2022-11-13T06:46:45;11.57;;;8.13;;
4583;SDS011;2304;47.606;12.186;2022-11-13T06:51:46;12.10;;;8.23;;
4583;SDS011;2304;47.606;12.186;2022-11-13T06:56:50;10.87;;;7.67;;
4583;SDS011;2304;47.606;12.186;2022-11-13T07:01:51;12.17;;;7.90;;
4583;SDS011;2304;47.606;12.186;2022-11-13T07:06:53;11.97;;;7.77;;
4583;SDS011;2304;47.606;12.186;2022-11-13T07:11:56;11.67;;;7.90;;
4583;SDS011;2304;47.606;12.186;2022-11-13T07:16:58;15.60;;;7.73;;
4583;SDS011;2304;47.606;12.186;2022-11-13T07:22:01;10.40;;;7.43;;
4583;SDS011;2304;47.606;12.186;2022-11-13T07:27:05;14.20;;;7.77;;
4583;SDS011;2304;47.606;12.186;2022-11-13T07:32:06;11.20;;;7.73;;
4583;SDS011;2304;47.606;12.186;2022-11-13T07:37:08;13.70;;;9.40;;
4583;SDS011;2304;47.606;12.186;2022-11-13T07:42:11;14.80;;;9.50;;
4583;SDS011;2304;47.606;12.186;2022-11-13T07:47:13;12.37;;;8.57;;
4583;SDS011;2304;47.606;12.186;2022-11-13T07:52:15;14.30;;;8.53;;
4583;SDS011;2304;47.606;12.186;2022-11-13T07:57:20;12.37;;;8.23;;
4583;SDS011;2304;47.606;12.186;2022-11-13T08:02:22;14.10;;;9.40;;
4583;SDS011;2304;47.606;12.186;2022-11-13T08:07:23;14.70;;;9.10;;
4583;SDS011;2304;47.606;12.186;2022-11-13T08:12:27;13.63;;;7.80;;
4583;SDS011;2304;47.606;12.186;2022-11-13T08:17:29;10.40;;;6.93;;
4583;SDS011;2304;47.606;12.186;2022-11-13T08:22:31;9.67;;;7.30;;
4583;SDS011;2304;47.606;12.186;2022-11-13T08:27:34;7.70;;;5.67;;
4583;SDS011;2304;47.606;12.186;2022-11-13T08:32:37;7.67;;;5.87;;
4583;SDS011;2304;47.606;12.186;2022-11-13T08:37:39;6.70;;;4.80;;
4583;SDS011;2304;47.606;12.186;2022-11-13T08:42:42;7.93;;;5.93;;
4583;SDS011;2304;47.606;12.186;2022-11-13T08:47:44;10.97;;;6.30;;
4583;SDS011;2304;47.606;12.186;2022-11-13T08:52:46;8.80;;;5.87;;
4583;SDS011;2304;47.606;12.186;2022-11-13T08:57:50;9.63;;;6.87;;
4583;SDS011;2304;47.606;12.186;2022-11-13T09:02:52;11.17;;;7.33;;
4583;SDS011;2304;47.606;12.186;2022-11-13T09:07:55;8.10;;;5.80;;
4583;SDS011;2304;47.606;12.186;2022-11-13T09:13:00;7.53;;;6.03;;
4583;SDS011;2304;47.606;12.186;2022-11-13T09:18:04;8.13;;;5.40;;
4583;SDS011;2304;47.606;12.186;2022-11-13T09:23:06;8.93;;;6.10;;
4583;SDS011;2304;47.606;12.186;2022-11-13T09:28:10;8.47;;;4.90;;
4583;SDS011;2304;47.606;12.186;2022-11-13T09:33:13;5.83;;;4.37;;
4583;SDS011;2304;47.606;12.186;2022-11-13T09:38:15;5.63;;;4.80;;
4583;SDS011;2304;47.606;12.186;2022-11-13T09:43:30;5.70;;;4.10;;
4583;SDS011;2304;47.606;12.186;2022-11-13T09:48:37;5.63;;;3.90;;
4583;SDS011;2304;47.606;12.186;2022-11-13T09:53:42;4.90;;;3.30;;
4583;SDS011;2304;47.606;12.186;2022-11-13T09:58:47;6.73;;;4.30;;
4583;SDS011;2304;47.606;12.186;2022-11-13T10:03:54;4.57;;;3.23;;
4583;SDS011;2304;47.606;12.186;2022-11-13T10:09:00;6.07;;;4.23;;
4583;SDS011;2304;47.606;12.186;2022-11-13T10:14:13;6.77;;;3.37;;
4583;SDS011;2304;47.606;12.186;2022-11-13T10:19:20;6.50;;;3.27;;
4583;SDS011;2304;47.606;12.186;2022-11-13T10:24:27;4.43;;;2.97;;
4583;SDS011;2304;47.606;12.186;2022-11-13T10:29:36;5.57;;;3.90;;
4583;SDS011;2304;47.606;12.186;2022-11-13T10:34:38;4.90;;;3.73;;
4583;SDS011;2304;47.606;12.186;2022-11-13T10:39:42;5.47;;;3.90;;
4583;SDS011;2304;47.606;12.186;2022-11-13T10:44:52;6.30;;;4.17;;
4583;SDS011;2304;47.606;12.186;2022-11-13T10:49:55;7.07;;;3.60;;
4583;SDS011;2304;47.606;12.186;2022-11-13T10:55:03;9.67;;;3.87;;
4583;SDS011;2304;47.606;12.186;2022-11-13T11:00:20;4.90;;;3.20;;
4583;SDS011;2304;47.606;12.186;2022-11-13T11:05:24;5.83;;;3.93;;
4583;SDS011;2304;47.606;12.186;2022-11-13T11:10:29;6.10;;;3.80;;
4583;SDS011;2304;47.606;12.186;2022-11-13T11:15:37;3.70;;;2.77;;
4583;SDS011;2304;47.606;12.186;2022-11-13T11:20:46;3.97;;;2.37;;
4583;SDS011;2304;47.606;12.186;2022-11-13T11:25:53;5.73;;;3.60;;
4583;SDS011;2304;47.606;12.186;2022-11-13T11:31:03;4.63;;;3.13;;
4583;SDS011;2304;47.606;12.186;2022-11-13T11:36:13;3.17;;;2.10;;
4583;SDS011;2304;47.606;12.186;2022-11-13T11:41:25;3.60;;;2.20;;
4583;SDS011;2304;47.606;12.186;2022-11-13T11:46:32;3.27;;;2.53;;
4583;SDS011;2304;47.606;12.186;2022-11-13T11:51:42;5.07;;;2.90;;
4583;SDS011;2304;47.606;12.186;2022-11-13T11:56:54;3.20;;;2.23;;
4583;SDS011;2304;47.606;12.186;2022-11-13T12:02:14;4.07;;;2.70;;
4583;SDS011;2304;47.606;12.186;2022-11-13T12:07:37;4.43;;;2.70;;
4583;SDS011;2304;47.606;12.186;2022-11-13T12:12:51;5.50;;;2.60;;
4583;SDS011;2304;47.606;12.186;2022-11-13T12:18:04;4.13;;;2.40;;
4583;SDS011;2304;47.606;12.186;2022-11-13T12:23:17;3.30;;;2.23;;
4583;SDS011;2304;47.606;12.186;2022-11-13T12:28:31;2.70;;;2.10;;
4583;SDS011;2304;47.606;12.186;2022-11-13T12:33:42;11.33;;;6.90;;
4583;SDS011;2304;47.606;12.186;2022-11-13T12:38:54;11.50;;;7.30;;
4583;SDS011;2304;47.606;12.186;2022-11-13T12:44:18;11.90;;;5.37;;
4583;SDS011;2304;47.606;12.186;2022-11-13T12:49:27;9.37;;;5.97;;
4583;SDS011;2304;47.606;12.186;2022-11-13T12:54:32;11.53;;;6.60;;
4583;SDS011;2304;47.606;12.186;2022-11-13T12:59:39;10.93;;;6.80;;
4583;SDS011;2304;47.606;12.186;2022-11-13T13:04:47;8.43;;;6.93;;
4583;SDS011;2304;47.606;12.186;2022-11-13T13:10:03;8.30;;;6.70;;
4583;SDS011;2304;47.606;12.186;2022-11-13T13:15:21;8.77;;;6.53;;
4583;SDS011;2304;47.606;12.186;2022-11-13T13:20:32;12.40;;;6.20;;
4583;SDS011;2304;47.606;12.186;2022-11-13T13:25:35;7.40;;;6.10;;
4583;SDS011;2304;47.606;12.186;2022-11-13T13:30:44;8.30;;;5.80;;
4583;SDS011;2304;47.606;12.186;2022-11-13T13:35:56;8.13;;;6.20;;
4583;SDS011;2304;47.606;12.186;2022-11-13T13:41:15;6.60;;;4.90;;
4583;SDS011;2304;47.606;12.186;2022-11-13T13:46:23;5.80;;;4.60;;
4583;SDS011;2304;47.606;12.186;2022-11-13T13:51:32;8.20;;;5.03;;
4583;SDS011;2304;47.606;12.186;2022-11-13T13:56:39;5.83;;;5.07;;
4583;SDS011;2304;47.606;12.186;2022-11-13T14:01:51;8.97;;;5.00;;
4583;SDS011;2304;47.606;12.186;2022-11-13T14:06:55;7.10;;;5.50;;
4583;SDS011;2304;47.606;12.186;2022-11-13T14:11:59;6.10;;;5.33;;
4583;SDS011;2304;47.606;12.186;2022-11-13T14:17:02;6.67;;;4.80;;
4583;SDS011;2304;47.606;12.186;2022-11-13T14:22:05;8.03;;;5.10;;
4583;SDS011;2304;47.606;12.186;2022-11-13T14:27:13;12.30;;;5.67;;
4583;SDS011;2304;47.606;12.186;2022-11-13T14:32:18;7.50;;;5.33;;
4583;SDS011;2304;47.606;12.186;2022-11-13T14:37:24;5.93;;;4.93;;
4583;SDS011;2304;47.606;12.186;2022-11-13T14:42:29;8.50;;;5.17;;
4583;SDS011;2304;47.606;12.186;2022-11-13T14:47:35;12.60;;;9.17;;
4583;SDS011;2304;47.606;12.186;2022-11-13T14:52:39;8.17;;;6.97;;
4583;SDS011;2304;47.606;12.186;2022-11-13T14:57:45;17.33;;;11.50;;
4583;SDS011;2304;47.606;12.186;2022-11-13T15:02:48;17.70;;;11.70;;
4583;SDS011;2304;47.606;12.186;2022-11-13T15:07:51;58.87;;;27.20;;
4583;SDS011;2304;47.606;12.186;2022-11-13T15:12:54;16.50;;;11.27;;
4583;SDS011;2304;47.606;12.186;2022-11-13T15:17:56;17.67;;;11.80;;
4583;SDS011;2304;47.606;12.186;2022-11-13T15:22:59;14.60;;;12.20;;
4583;SDS011;2304;47.606;12.186;2022-11-13T15:28:01;17.93;;;12.77;;
4583;SDS011;2304;47.606;12.186;2022-11-13T15:33:08;13.20;;;11.37;;
4583;SDS011;2304;47.606;12.186;2022-11-13T15:38:14;14.47;;;10.83;;
4583;SDS011;2304;47.606;12.186;2022-11-13T15:43:17;40.23;;;22.00;;
4583;SDS011;2304;47.606;12.186;2022-11-13T15:48:20;90.83;;;38.10;;
4583;SDS011;2304;47.606;12.186;2022-11-13T15:53:23;23.47;;;17.00;;
4583;SDS011;2304;47.606;12.186;2022-11-13T15:58:25;27.80;;;19.13;;
4583;SDS011;2304;47.606;12.186;2022-11-13T16:03:26;27.10;;;19.23;;
4583;SDS011;2304;47.606;12.186;2022-11-13T16:08:32;23.27;;;15.70;;
4583;SDS011;2304;47.606;12.186;2022-11-13T16:13:34;18.53;;;13.57;;
4583;SDS011;2304;47.606;12.186;2022-11-13T16:18:35;41.40;;;29.53;;
4583;SDS011;2304;47.606;12.186;2022-11-13T16:23:39;44.77;;;26.43;;
4583;SDS011;2304;47.606;12.186;2022-11-13T16:28:41;34.03;;;22.30;;
4583;SDS011;2304;47.606;12.186;2022-11-13T16:33:42;24.73;;;16.50;;
4583;SDS011;2304;47.606;12.186;2022-11-13T16:38:46;29.50;;;21.23;;
4583;SDS011;2304;47.606;12.186;2022-11-13T16:43:48;23.87;;;16.60;;
4583;SDS011;2304;47.606;12.186;2022-11-13T16:48:50;30.80;;;21.57;;
4583;SDS011;2304;47.606;12.186;2022-11-13T16:53:54;27.37;;;18.47;;
4583;SDS011;2304;47.606;12.186;2022-11-13T16:58:56;23.63;;;16.00;;
4583;SDS011;2304;47.606;12.186;2022-11-13T17:03:58;52.20;;;26.10;;
4583;SDS011;2304;47.606;12.186;2022-11-13T17:09:02;46.33;;;25.60;;
4583;SDS011;2304;47.606;12.186;2022-11-13T17:14:05;41.63;;;27.67;;
4583;SDS011;2304;47.606;12.186;2022-11-13T17:19:09;38.77;;;22.50;;
4583;SDS011;2304;47.606;12.186;2022-11-13T17:24:13;37.43;;;23.20;;
4583;SDS011;2304;47.606;12.186;2022-11-13T17:29:15;42.03;;;21.53;;
4583;SDS011;2304;47.606;12.186;2022-11-13T17:34:17;62.47;;;32.87;;
4583;SDS011;2304;47.606;12.186;2022-11-13T17:39:20;43.97;;;25.80;;
4583;SDS011;2304;47.606;12.186;2022-11-13T17:44:22;31.30;;;19.27;;
4583;SDS011;2304;47.606;12.186;2022-11-13T17:49:24;41.43;;;26.60;;
4583;SDS011;2304;47.606;12.186;2022-11-13T17:54:27;46.63;;;30.33;;
4583;SDS011;2304;47.606;12.186;2022-11-13T17:59:29;29.80;;;18.47;;
4583;SDS011;2304;47.606;12.186;2022-11-13T18:04:31;40.10;;;25.23;;
4583;SDS011;2304;47.606;12.186;2022-11-13T18:09:34;26.23;;;17.20;;
4583;SDS011;2304;47.606;12.186;2022-11-13T18:14:36;33.90;;;19.57;;
4583;SDS011;2304;47.606;12.186;2022-11-13T18:19:37;29.43;;;18.80;;
4583;SDS011;2304;47.606;12.186;2022-11-13T18:24:41;29.07;;;15.97;;
4583;SDS011;2304;47.606;12.186;2022-11-13T18:29:43;27.50;;;18.47;;
4583;SDS011;2304;47.606;12.186;2022-11-13T18:34:45;23.43;;;14.90;;
4583;SDS011;2304;47.606;12.186;2022-11-13T18:39:48;23.20;;;13.77;;
4583;SDS011;2304;47.606;12.186;2022-11-13T18:44:50;27.40;;;17.33;;
4583;SDS011;2304;47.606;12.186;2022-11-13T18:49:52;20.20;;;12.00;;
4583;SDS011;2304;47.606;12.186;2022-11-13T18:54:55;17.13;;;9.63;;
4583;SDS011;2304;47.606;12.186;2022-11-13T18:59:57;16.67;;;10.03;;
4583;SDS011;2304;47.606;12.186;2022-11-13T19:04:59;18.07;;;10.20;;
4583;SDS011;2304;47.606;12.186;2022-11-13T19:10:02;17.00;;;11.17;;
4583;SDS011;2304;47.606;12.186;2022-11-13T19:15:05;18.27;;;11.13;;
4583;SDS011;2304;47.606;12.186;2022-11-13T19:20:08;15.17;;;9.87;;
4583;SDS011;2304;47.606;12.186;2022-11-13T19:25:11;15.70;;;9.90;;
4583;SDS011;2304;47.606;12.186;2022-11-13T19:30:14;15.67;;;10.70;;
4583;SDS011;2304;47.606;12.186;2022-11-13T19:35:16;15.73;;;9.00;;
4583;SDS011;2304;47.606;12.186;2022-11-13T19:40:19;22.00;;;12.90;;
4583;SDS011;2304;47.606;12.186;2022-11-13T19:45:21;24.17;;;15.90;;
4583;SDS011;2304;47.606;12.186;2022-11-13T19:50:24;22.10;;;13.50;;
4583;SDS011;2304;47.606;12.186;2022-11-13T19:55:27;17.50;;;12.90;;
4583;SDS011;2304;47.606;12.186;2022-11-13T20:00:29;24.83;;;15.60;;
4583;SDS011;2304;47.606;12.186;2022-11-13T20:05:31;19.10;;;9.57;;
4583;SDS011;2304;47.606;12.186;2022-11-13T20:10:34;16.67;;;10.90;;
4583;SDS011;2304;47.606;12.186;2022-11-13T20:15:37;19.60;;;12.00;;
4583;SDS011;2304;47.606;12.186;2022-11-13T20:20:41;23.57;;;10.50;;
4583;SDS011;2304;47.606;12.186;2022-11-13T20:25:50;21.33;;;11.00;;
4583;SDS011;2304;47.606;12.186;2022-11-13T20:31:00;15.10;;;8.97;;
4583;SDS011;2304;47.606;12.186;2022-11-13T20:36:03;19.70;;;10.60;;
4583;SDS011;2304;47.606;12.186;2022-11-13T20:41:08;19.33;;;10.60;;
4583;SDS011;2304;47.606;12.186;2022-11-13T20:46:11;17.10;;;10.10;;
4583;SDS011;2304;47.606;12.186;2022-11-13T20:51:15;12.77;;;8.53;;
4583;SDS011;2304;47.606;12.186;2022-11-13T20:56:20;12.60;;;7.83;;
4583;SDS011;2304;47.606;12.186;2022-11-13T21:01:24;11.20;;;8.33;;
4583;SDS011;2304;47.606;12.186;2022-11-13T21:06:26;14.20;;;8.40;;
4583;SDS011;2304;47.606;12.186;2022-11-13T21:11:29;13.60;;;7.63;;
4583;SDS011;2304;47.606;12.186;2022-11-13T21:16:31;11.60;;;7.90;;
4583;SDS011;2304;47.606;12.186;2022-11-13T21:21:33;11.37;;;7.27;;
4583;SDS011;2304;47.606;12.186;2022-11-13T21:26:37;12.70;;;7.40;;
4583;SDS011;2304;47.606;12.186;2022-11-13T21:31:39;11.93;;;7.30;;
4583;SDS011;2304;47.606;12.186;2022-11-13T21:36:40;12.20;;;6.80;;
4583;SDS011;2304;47.606;12.186;2022-11-13T21:41:44;12.87;;;7.40;;
4583;SDS011;2304;47.606;12.186;2022-11-13T21:46:46;10.27;;;6.47;;
4583;SDS011;2304;47.606;12.186;2022-11-13T21:51:48;12.20;;;7.47;;
4583;SDS011;2304;47.606;12.186;2022-11-13T21:56:51;11.50;;;6.87;;
4583;SDS011;2304;47.606;12.186;2022-11-13T22:01:53;11.70;;;6.60;;
4583;SDS011;2304;47.606;12.186;2022-11-13T22:06:54;14.20;;;7.30;;
4583;SDS011;2304;47.606;12.186;2022-11-13T22:11:58;11.70;;;7.23;;
4583;SDS011;2304;47.606;12.186;2022-11-13T22:17:00;12.90;;;7.03;;
4583;SDS011;2304;47.606;12.186;2022-11-13T22:22:02;11.93;;;6.50;;
4583;SDS011;2304;47.606;12.186;2022-11-13T22:27:05;11.87;;;7.53;;
4583;SDS011;2304;47.606;12.186;2022-11-13T22:32:07;13.80;;;7.70;;
4583;SDS011;2304;47.606;12.186;2022-11-13T22:37:08;12.63;;;7.27;;
4583;SDS011;2304;47.606;12.186;2022-11-13T22:42:11;11.27;;;7.03;;
4583;SDS011;2304;47.606;12.186;2022-11-13T22:47:13;10.00;;;6.40;;
4583;SDS011;2304;47.606;12.186;2022-11-13T22:52:15;11.07;;;6.30;;
4583;SDS011;2304;47.606;12.186;2022-11-13T22:57:18;10.37;;;6.07;;
4583;SDS011;2304;47.606;12.186;2022-11-13T23:02:20;9.93;;;6.80;;
4583;SDS011;2304;47.606;12.186;2022-11-13T23:07:22;11.30;;;7.57;;
4583;SDS011;2304;47.606;12.186;2022-11-13T23:12:25;11.27;;;6.37;;
4583;SDS011;2304;47.606;12.186;2022-11-13T23:17:27;10.13;;;6.60;;
4583;SDS011;2304;47.606;12.186;2022-11-13T23:22:29;9.03;;;5.33;;
4583;SDS011;2304;47.606;12.186;2022-11-13T23:27:32;12.27;;;6.80;;
4583;SDS011;2304;47.606;12.186;2022-11-13T23:32:34;9.80;;;5.97;;
4583;SDS011;2304;47.606;12.186;2022-11-13T23:37:36;9.30;;;6.33;;
4583;SDS011;2304;47.606;12.186;2022-11-13T23:42:39;9.33;;;5.70;;
4583;SDS011;2304;47.606;12.186;2022-11-13T23:47:41;11.63;;;6.13;;
4583;SDS011;2304;47.606;12.186;2022-11-13T23:52:43;9.10;;;5.60;;
4583;SDS011;2304;47.606;12.186;2022-11-13T23:57:46;9.80;;;5.47;;
